sensor_id;sensor_type;location;lat;lon;timestamp;temperature;humidity
55436;DHT22;41307;53.142;6.430;2023-08-24T00:02:09;15.10;99.90
55436;DHT22;41307;53.142;6.430;2023-08-24T00:04:36;15.10;99.90
55436;DHT22;41307;53.142;6.430;2023-08-24T00:07:04;15.10;99.90
55436;DHT22;41307;53.142;6.430;2023-08-24T00:09:29;15.10;99.90
55436;DHT22;41307;53.142;6.430;2023-08-24T00:11:55;15.10;99.90
55436;DHT22;41307;53.142;6.430;2023-08-24T00:14:21;15.10;99.90
55436;DHT22;41307;53.142;6.430;2023-08-24T00:16:47;15.10;99.90
55436;DHT22;41307;53.142;6.430;2023-08-24T00:19:12;15.10;99.90
55436;DHT22;41307;53.142;6.430;2023-08-24T00:21:38;15.00;99.90
55436;DHT22;41307;53.142;6.430;2023-08-24T00:24:04;15.00;99.90
55436;DHT22;41307;53.142;6.430;2023-08-24T00:26:30;15.00;99.90
55436;DHT22;41307;53.142;6.430;2023-08-24T00:28:58;15.00;99.90
55436;DHT22;41307;53.142;6.430;2023-08-24T00:31:24;15.00;99.90
55436;DHT22;41307;53.142;6.430;2023-08-24T00:33:50;15.00;99.90
55436;DHT22;41307;53.142;6.430;2023-08-24T00:36:16;15.10;99.90
55436;DHT22;41307;53.142;6.430;2023-08-24T00:38:43;15.10;99.90
55436;DHT22;41307;53.142;6.430;2023-08-24T00:41:09;15.10;99.90
55436;DHT22;41307;53.142;6.430;2023-08-24T00:43:35;15.10;99.90
55436;DHT22;41307;53.142;6.430;2023-08-24T00:46:01;15.10;99.90
55436;DHT22;41307;53.142;6.430;2023-08-24T00:48:29;15.20;99.90
55436;DHT22;41307;53.142;6.430;2023-08-24T00:50:59;15.20;99.90
55436;DHT22;41307;53.142;6.430;2023-08-24T00:53:27;15.20;99.90
55436;DHT22;41307;53.142;6.430;2023-08-24T00:55:53;15.20;99.90
55436;DHT22;41307;53.142;6.430;2023-08-24T00:58:20;15.10;99.90
55436;DHT22;41307;53.142;6.430;2023-08-24T01:00:46;15.20;99.90
55436;DHT22;41307;53.142;6.430;2023-08-24T01:03:12;15.10;99.90
55436;DHT22;41307;53.142;6.430;2023-08-24T01:05:37;15.10;99.90
55436;DHT22;41307;53.142;6.430;2023-08-24T01:08:03;15.10;99.90
55436;DHT22;41307;53.142;6.430;2023-08-24T01:10:53;15.10;99.90
55436;DHT22;41307;53.142;6.430;2023-08-24T01:13:43;15.10;99.90
55436;DHT22;41307;53.142;6.430;2023-08-24T01:16:20;15.10;99.90
55436;DHT22;41307;53.142;6.430;2023-08-24T01:18:54;15.10;99.90
55436;DHT22;41307;53.142;6.430;2023-08-24T01:21:21;15.20;99.90
55436;DHT22;41307;53.142;6.430;2023-08-24T01:24:10;15.20;99.90
55436;DHT22;41307;53.142;6.430;2023-08-24T01:26:38;15.20;99.90
55436;DHT22;41307;53.142;6.430;2023-08-24T01:29:05;15.20;99.90
55436;DHT22;41307;53.142;6.430;2023-08-24T01:31:32;15.20;99.90
55436;DHT22;41307;53.142;6.430;2023-08-24T01:33:58;15.20;99.90
55436;DHT22;41307;53.142;6.430;2023-08-24T01:36:25;15.20;99.90
55436;DHT22;41307;53.142;6.430;2023-08-24T01:39:03;15.20;99.90
55436;DHT22;41307;53.142;6.430;2023-08-24T01:41:35;15.20;99.90
55436;DHT22;41307;53.142;6.430;2023-08-24T01:44:04;15.20;99.90
55436;DHT22;41307;53.142;6.430;2023-08-24T01:46:33;15.20;99.90
55436;DHT22;41307;53.142;6.430;2023-08-24T01:49:00;15.20;99.90
55436;DHT22;41307;53.142;6.430;2023-08-24T01:51:26;15.20;99.90
55436;DHT22;41307;53.142;6.430;2023-08-24T01:53:53;15.20;99.90
55436;DHT22;41307;53.142;6.430;2023-08-24T01:56:20;15.10;99.90
55436;DHT22;41307;53.142;6.430;2023-08-24T01:58:45;15.10;99.90
55436;DHT22;41307;53.142;6.430;2023-08-24T02:01:11;15.10;99.90
55436;DHT22;41307;53.142;6.430;2023-08-24T02:03:38;15.20;99.90
55436;DHT22;41307;53.142;6.430;2023-08-24T02:06:07;15.10;99.90
55436;DHT22;41307;53.142;6.430;2023-08-24T02:08:33;15.20;99.90
55436;DHT22;41307;53.142;6.430;2023-08-24T02:10:59;15.20;99.90
55436;DHT22;41307;53.142;6.430;2023-08-24T02:13:24;15.10;99.90
55436;DHT22;41307;53.142;6.430;2023-08-24T02:15:50;15.10;99.90
55436;DHT22;41307;53.142;6.430;2023-08-24T02:18:16;15.10;99.90
55436;DHT22;41307;53.142;6.430;2023-08-24T02:20:41;15.10;99.90
55436;DHT22;41307;53.142;6.430;2023-08-24T02:23:07;15.10;99.90
55436;DHT22;41307;53.142;6.430;2023-08-24T02:25:33;15.10;99.90
55436;DHT22;41307;53.142;6.430;2023-08-24T02:27:59;15.10;99.90
55436;DHT22;41307;53.142;6.430;2023-08-24T02:30:25;15.10;99.90
55436;DHT22;41307;53.142;6.430;2023-08-24T02:32:51;15.10;99.90
55436;DHT22;41307;53.142;6.430;2023-08-24T02:35:17;15.10;99.90
55436;DHT22;41307;53.142;6.430;2023-08-24T02:37:43;15.20;99.90
55436;DHT22;41307;53.142;6.430;2023-08-24T02:40:09;15.20;99.90
55436;DHT22;41307;53.142;6.430;2023-08-24T02:42:35;15.20;99.90
55436;DHT22;41307;53.142;6.430;2023-08-24T02:45:01;15.20;99.90
55436;DHT22;41307;53.142;6.430;2023-08-24T02:47:27;15.20;99.90
55436;DHT22;41307;53.142;6.430;2023-08-24T02:49:53;15.20;99.90
55436;DHT22;41307;53.142;6.430;2023-08-24T02:52:19;15.30;99.90
55436;DHT22;41307;53.142;6.430;2023-08-24T02:54:44;15.30;99.90
55436;DHT22;41307;53.142;6.430;2023-08-24T02:57:10;15.30;99.90
55436;DHT22;41307;53.142;6.430;2023-08-24T02:59:36;15.30;99.90
55436;DHT22;41307;53.142;6.430;2023-08-24T03:02:02;15.30;99.90
55436;DHT22;41307;53.142;6.430;2023-08-24T03:04:28;15.30;99.90
55436;DHT22;41307;53.142;6.430;2023-08-24T03:06:54;15.30;99.90
55436;DHT22;41307;53.142;6.430;2023-08-24T03:09:19;15.30;99.90
55436;DHT22;41307;53.142;6.430;2023-08-24T03:11:45;15.30;99.90
55436;DHT22;41307;53.142;6.430;2023-08-24T03:14:11;15.30;99.90
55436;DHT22;41307;53.142;6.430;2023-08-24T03:16:38;15.20;99.90
55436;DHT22;41307;53.142;6.430;2023-08-24T03:19:04;15.20;99.90
55436;DHT22;41307;53.142;6.430;2023-08-24T03:21:30;15.20;99.90
55436;DHT22;41307;53.142;6.430;2023-08-24T03:23:57;15.10;99.90
55436;DHT22;41307;53.142;6.430;2023-08-24T03:26:22;15.10;99.90
55436;DHT22;41307;53.142;6.430;2023-08-24T03:28:49;15.10;99.90
55436;DHT22;41307;53.142;6.430;2023-08-24T03:31:15;15.10;99.90
55436;DHT22;41307;53.142;6.430;2023-08-24T03:33:41;15.00;99.90
55436;DHT22;41307;53.142;6.430;2023-08-24T03:36:07;15.00;99.90
55436;DHT22;41307;53.142;6.430;2023-08-24T03:38:32;15.00;99.90
55436;DHT22;41307;53.142;6.430;2023-08-24T03:41:02;15.00;99.90
55436;DHT22;41307;53.142;6.430;2023-08-24T03:43:31;15.10;99.90
55436;DHT22;41307;53.142;6.430;2023-08-24T03:45:58;15.10;99.90
55436;DHT22;41307;53.142;6.430;2023-08-24T03:48:24;15.10;99.90
55436;DHT22;41307;53.142;6.430;2023-08-24T03:50:49;15.10;99.90
55436;DHT22;41307;53.142;6.430;2023-08-24T03:53:15;15.10;99.90
55436;DHT22;41307;53.142;6.430;2023-08-24T03:55:41;15.10;99.90
55436;DHT22;41307;53.142;6.430;2023-08-24T03:58:06;15.10;99.90
55436;DHT22;41307;53.142;6.430;2023-08-24T04:00:32;15.20;99.90
55436;DHT22;41307;53.142;6.430;2023-08-24T04:02:58;15.20;99.90
55436;DHT22;41307;53.142;6.430;2023-08-24T04:05:24;15.20;99.90
55436;DHT22;41307;53.142;6.430;2023-08-24T04:07:50;15.30;99.90
55436;DHT22;41307;53.142;6.430;2023-08-24T04:10:16;15.30;99.90
55436;DHT22;41307;53.142;6.430;2023-08-24T04:12:41;15.30;99.90
55436;DHT22;41307;53.142;6.430;2023-08-24T04:15:08;15.30;99.90
55436;DHT22;41307;53.142;6.430;2023-08-24T04:17:34;15.30;99.90
55436;DHT22;41307;53.142;6.430;2023-08-24T04:20:00;15.20;99.90
55436;DHT22;41307;53.142;6.430;2023-08-24T04:22:25;15.30;99.90
55436;DHT22;41307;53.142;6.430;2023-08-24T04:24:51;15.30;99.90
55436;DHT22;41307;53.142;6.430;2023-08-24T04:27:17;15.30;99.90
55436;DHT22;41307;53.142;6.430;2023-08-24T04:29:43;15.30;99.90
55436;DHT22;41307;53.142;6.430;2023-08-24T04:32:08;15.30;99.90
55436;DHT22;41307;53.142;6.430;2023-08-24T04:34:34;15.30;99.90
55436;DHT22;41307;53.142;6.430;2023-08-24T04:36:59;15.30;99.90
55436;DHT22;41307;53.142;6.430;2023-08-24T04:39:26;15.20;99.90
55436;DHT22;41307;53.142;6.430;2023-08-24T04:41:52;15.20;99.90
55436;DHT22;41307;53.142;6.430;2023-08-24T04:44:18;15.20;99.90
55436;DHT22;41307;53.142;6.430;2023-08-24T04:46:44;15.10;99.90
55436;DHT22;41307;53.142;6.430;2023-08-24T04:49:10;15.10;99.90
55436;DHT22;41307;53.142;6.430;2023-08-24T04:51:35;15.10;99.90
55436;DHT22;41307;53.142;6.430;2023-08-24T04:54:01;15.10;99.90
55436;DHT22;41307;53.142;6.430;2023-08-24T04:56:27;15.10;99.90
55436;DHT22;41307;53.142;6.430;2023-08-24T04:58:57;15.10;99.90
55436;DHT22;41307;53.142;6.430;2023-08-24T05:01:27;15.10;99.90
55436;DHT22;41307;53.142;6.430;2023-08-24T05:03:53;15.10;99.90
55436;DHT22;41307;53.142;6.430;2023-08-24T05:06:19;15.10;99.90
55436;DHT22;41307;53.142;6.430;2023-08-24T05:08:45;15.10;99.90
55436;DHT22;41307;53.142;6.430;2023-08-24T05:11:19;15.10;99.90
55436;DHT22;41307;53.142;6.430;2023-08-24T05:13:45;15.20;99.90
55436;DHT22;41307;53.142;6.430;2023-08-24T05:16:12;15.20;99.90
55436;DHT22;41307;53.142;6.430;2023-08-24T05:18:38;15.20;99.90
55436;DHT22;41307;53.142;6.430;2023-08-24T05:21:04;15.10;99.90
55436;DHT22;41307;53.142;6.430;2023-08-24T05:23:34;15.10;99.90
55436;DHT22;41307;53.142;6.430;2023-08-24T05:26:01;15.10;99.90
55436;DHT22;41307;53.142;6.430;2023-08-24T05:28:28;15.10;99.90
55436;DHT22;41307;53.142;6.430;2023-08-24T05:30:55;15.10;99.90
55436;DHT22;41307;53.142;6.430;2023-08-24T05:33:21;15.10;99.90
55436;DHT22;41307;53.142;6.430;2023-08-24T05:35:48;15.10;99.90
55436;DHT22;41307;53.142;6.430;2023-08-24T05:38:15;15.10;99.90
55436;DHT22;41307;53.142;6.430;2023-08-24T05:40:42;15.30;99.90
55436;DHT22;41307;53.142;6.430;2023-08-24T05:43:09;15.50;99.90
55436;DHT22;41307;53.142;6.430;2023-08-24T05:45:35;16.30;99.90
55436;DHT22;41307;53.142;6.430;2023-08-24T05:48:01;17.30;99.90
55436;DHT22;41307;53.142;6.430;2023-08-24T05:50:27;18.20;99.90
55436;DHT22;41307;53.142;6.430;2023-08-24T05:52:53;18.90;99.90
55436;DHT22;41307;53.142;6.430;2023-08-24T05:55:20;19.30;99.90
55436;DHT22;41307;53.142;6.430;2023-08-24T05:57:46;19.90;99.90
55436;DHT22;41307;53.142;6.430;2023-08-24T06:00:12;20.40;99.90
55436;DHT22;41307;53.142;6.430;2023-08-24T06:02:39;20.70;99.90
55436;DHT22;41307;53.142;6.430;2023-08-24T06:05:05;21.00;99.90
55436;DHT22;41307;53.142;6.430;2023-08-24T06:07:32;21.30;99.90
55436;DHT22;41307;53.142;6.430;2023-08-24T06:09:58;21.60;99.90
55436;DHT22;41307;53.142;6.430;2023-08-24T06:12:24;21.40;99.90
55436;DHT22;41307;53.142;6.430;2023-08-24T06:14:49;20.90;99.90
55436;DHT22;41307;53.142;6.430;2023-08-24T06:17:15;20.50;99.90
55436;DHT22;41307;53.142;6.430;2023-08-24T06:19:41;19.80;99.90
55436;DHT22;41307;53.142;6.430;2023-08-24T06:22:07;19.40;99.90
55436;DHT22;41307;53.142;6.430;2023-08-24T06:24:33;18.90;99.90
55436;DHT22;41307;53.142;6.430;2023-08-24T06:26:58;18.50;99.90
55436;DHT22;41307;53.142;6.430;2023-08-24T06:29:24;18.20;99.90
55436;DHT22;41307;53.142;6.430;2023-08-24T06:31:50;18.10;99.90
55436;DHT22;41307;53.142;6.430;2023-08-24T06:34:15;18.00;99.90
55436;DHT22;41307;53.142;6.430;2023-08-24T06:36:41;18.00;99.90
55436;DHT22;41307;53.142;6.430;2023-08-24T06:39:07;17.90;99.90
55436;DHT22;41307;53.142;6.430;2023-08-24T06:41:36;17.80;99.90
55436;DHT22;41307;53.142;6.430;2023-08-24T06:44:02;17.80;99.90
55436;DHT22;41307;53.142;6.430;2023-08-24T06:46:29;17.90;99.90
55436;DHT22;41307;53.142;6.430;2023-08-24T06:48:55;17.90;99.90
55436;DHT22;41307;53.142;6.430;2023-08-24T06:51:20;18.00;99.90
55436;DHT22;41307;53.142;6.430;2023-08-24T06:53:46;18.10;99.90
55436;DHT22;41307;53.142;6.430;2023-08-24T06:56:14;18.10;99.90
55436;DHT22;41307;53.142;6.430;2023-08-24T06:58:40;18.20;99.90
55436;DHT22;41307;53.142;6.430;2023-08-24T07:01:09;18.20;99.90
55436;DHT22;41307;53.142;6.430;2023-08-24T07:03:34;18.30;99.90
55436;DHT22;41307;53.142;6.430;2023-08-24T07:06:00;18.40;99.90
55436;DHT22;41307;53.142;6.430;2023-08-24T07:08:26;18.40;99.90
55436;DHT22;41307;53.142;6.430;2023-08-24T07:10:51;18.40;99.90
55436;DHT22;41307;53.142;6.430;2023-08-24T07:13:17;18.60;99.90
55436;DHT22;41307;53.142;6.430;2023-08-24T07:15:43;18.60;99.90
55436;DHT22;41307;53.142;6.430;2023-08-24T07:18:10;18.70;99.90
55436;DHT22;41307;53.142;6.430;2023-08-24T07:20:37;18.70;99.90
55436;DHT22;41307;53.142;6.430;2023-08-24T07:23:03;18.80;99.90
55436;DHT22;41307;53.142;6.430;2023-08-24T07:25:29;18.80;99.90
55436;DHT22;41307;53.142;6.430;2023-08-24T07:27:55;18.90;99.90
55436;DHT22;41307;53.142;6.430;2023-08-24T07:30:27;19.00;99.90
55436;DHT22;41307;53.142;6.430;2023-08-24T07:32:53;19.10;99.90
55436;DHT22;41307;53.142;6.430;2023-08-24T07:35:20;19.20;99.90
55436;DHT22;41307;53.142;6.430;2023-08-24T07:37:49;19.30;99.90
55436;DHT22;41307;53.142;6.430;2023-08-24T07:40:14;19.40;99.90
55436;DHT22;41307;53.142;6.430;2023-08-24T07:42:50;19.60;99.90
55436;DHT22;41307;53.142;6.430;2023-08-24T07:45:18;20.00;99.90
55436;DHT22;41307;53.142;6.430;2023-08-24T07:47:44;20.70;99.90
55436;DHT22;41307;53.142;6.430;2023-08-24T07:50:11;21.80;99.90
55436;DHT22;41307;53.142;6.430;2023-08-24T07:52:38;22.50;99.90
55436;DHT22;41307;53.142;6.430;2023-08-24T07:55:05;23.10;99.90
55436;DHT22;41307;53.142;6.430;2023-08-24T07:57:35;23.70;99.90
55436;DHT22;41307;53.142;6.430;2023-08-24T08:00:02;24.30;99.90
55436;DHT22;41307;53.142;6.430;2023-08-24T08:02:28;24.60;99.90
55436;DHT22;41307;53.142;6.430;2023-08-24T08:04:57;25.00;99.90
55436;DHT22;41307;53.142;6.430;2023-08-24T08:07:28;25.20;99.90
55436;DHT22;41307;53.142;6.430;2023-08-24T08:09:54;25.10;99.90
55436;DHT22;41307;53.142;6.430;2023-08-24T08:12:23;25.10;99.90
55436;DHT22;41307;53.142;6.430;2023-08-24T08:14:49;25.30;99.90
55436;DHT22;41307;53.142;6.430;2023-08-24T08:17:15;25.60;99.90
55436;DHT22;41307;53.142;6.430;2023-08-24T08:19:41;25.80;99.90
55436;DHT22;41307;53.142;6.430;2023-08-24T08:22:06;26.00;99.90
55436;DHT22;41307;53.142;6.430;2023-08-24T08:24:33;26.30;99.90
55436;DHT22;41307;53.142;6.430;2023-08-24T08:26:59;26.80;99.90
55436;DHT22;41307;53.142;6.430;2023-08-24T08:29:25;27.20;99.90
55436;DHT22;41307;53.142;6.430;2023-08-24T08:31:51;27.10;99.90
55436;DHT22;41307;53.142;6.430;2023-08-24T08:34:16;27.10;99.90
55436;DHT22;41307;53.142;6.430;2023-08-24T08:36:44;27.50;99.90
55436;DHT22;41307;53.142;6.430;2023-08-24T08:39:10;27.70;99.90
55436;DHT22;41307;53.142;6.430;2023-08-24T08:41:42;28.00;99.90
55436;DHT22;41307;53.142;6.430;2023-08-24T08:44:11;28.00;99.90
55436;DHT22;41307;53.142;6.430;2023-08-24T08:46:38;27.80;99.90
55436;DHT22;41307;53.142;6.430;2023-08-24T08:49:06;27.60;99.90
55436;DHT22;41307;53.142;6.430;2023-08-24T08:51:35;27.50;99.90
55436;DHT22;41307;53.142;6.430;2023-08-24T08:54:02;27.30;99.90
55436;DHT22;41307;53.142;6.430;2023-08-24T08:56:29;27.50;99.90
55436;DHT22;41307;53.142;6.430;2023-08-24T08:58:56;27.60;99.90
55436;DHT22;41307;53.142;6.430;2023-08-24T09:01:24;27.60;99.90
55436;DHT22;41307;53.142;6.430;2023-08-24T09:03:51;27.30;99.90
55436;DHT22;41307;53.142;6.430;2023-08-24T09:06:17;27.00;99.90
55436;DHT22;41307;53.142;6.430;2023-08-24T09:08:44;26.30;99.90
55436;DHT22;41307;53.142;6.430;2023-08-24T09:11:10;26.10;99.90
55436;DHT22;41307;53.142;6.430;2023-08-24T09:13:35;25.80;99.90
55436;DHT22;41307;53.142;6.430;2023-08-24T09:16:04;25.30;99.90
55436;DHT22;41307;53.142;6.430;2023-08-24T09:18:38;25.10;99.90
55436;DHT22;41307;53.142;6.430;2023-08-24T09:21:14;25.00;99.90
55436;DHT22;41307;53.142;6.430;2023-08-24T09:23:44;24.90;99.90
55436;DHT22;41307;53.142;6.430;2023-08-24T09:26:14;24.60;99.90
55436;DHT22;41307;53.142;6.430;2023-08-24T09:28:42;24.40;99.90
55436;DHT22;41307;53.142;6.430;2023-08-24T09:31:08;24.20;99.90
55436;DHT22;41307;53.142;6.430;2023-08-24T09:33:36;24.10;99.90
55436;DHT22;41307;53.142;6.430;2023-08-24T09:36:06;24.00;99.90
55436;DHT22;41307;53.142;6.430;2023-08-24T09:38:33;24.00;99.90
55436;DHT22;41307;53.142;6.430;2023-08-24T09:40:58;24.00;99.90
55436;DHT22;41307;53.142;6.430;2023-08-24T09:43:24;23.90;99.90
55436;DHT22;41307;53.142;6.430;2023-08-24T09:46:00;23.80;99.90
55436;DHT22;41307;53.142;6.430;2023-08-24T09:48:25;23.70;99.90
55436;DHT22;41307;53.142;6.430;2023-08-24T09:50:52;23.60;99.90
55436;DHT22;41307;53.142;6.430;2023-08-24T09:53:19;23.50;99.90
55436;DHT22;41307;53.142;6.430;2023-08-24T09:56:07;23.40;99.90
55436;DHT22;41307;53.142;6.430;2023-08-24T09:58:34;23.40;99.90
55436;DHT22;41307;53.142;6.430;2023-08-24T10:01:01;23.40;99.90
55436;DHT22;41307;53.142;6.430;2023-08-24T10:03:30;23.40;99.90
55436;DHT22;41307;53.142;6.430;2023-08-24T10:05:58;23.40;99.90
55436;DHT22;41307;53.142;6.430;2023-08-24T10:08:54;23.40;99.90
55436;DHT22;41307;53.142;6.430;2023-08-24T10:11:24;23.40;99.90
55436;DHT22;41307;53.142;6.430;2023-08-24T10:14:07;23.30;99.90
55436;DHT22;41307;53.142;6.430;2023-08-24T10:16:36;23.20;99.90
55436;DHT22;41307;53.142;6.430;2023-08-24T10:19:02;23.10;99.90
55436;DHT22;41307;53.142;6.430;2023-08-24T10:21:29;23.10;99.90
55436;DHT22;41307;53.142;6.430;2023-08-24T10:23:56;23.10;99.90
55436;DHT22;41307;53.142;6.430;2023-08-24T10:26:23;23.00;99.90
55436;DHT22;41307;53.142;6.430;2023-08-24T10:28:50;23.00;99.90
55436;DHT22;41307;53.142;6.430;2023-08-24T10:31:17;23.00;99.90
55436;DHT22;41307;53.142;6.430;2023-08-24T10:33:45;22.90;99.90
55436;DHT22;41307;53.142;6.430;2023-08-24T10:36:13;22.90;99.90
55436;DHT22;41307;53.142;6.430;2023-08-24T10:38:43;22.80;99.90
55436;DHT22;41307;53.142;6.430;2023-08-24T10:41:10;22.70;99.90
55436;DHT22;41307;53.142;6.430;2023-08-24T10:43:49;22.70;99.90
55436;DHT22;41307;53.142;6.430;2023-08-24T10:46:15;22.60;99.90
55436;DHT22;41307;53.142;6.430;2023-08-24T10:53:40;22.40;99.90
55436;DHT22;41307;53.142;6.430;2023-08-24T10:56:14;22.40;99.90
55436;DHT22;41307;53.142;6.430;2023-08-24T10:58:40;22.40;99.90
55436;DHT22;41307;53.142;6.430;2023-08-24T11:01:06;22.40;99.90
55436;DHT22;41307;53.142;6.430;2023-08-24T11:03:32;22.50;99.90
55436;DHT22;41307;53.142;6.430;2023-08-24T11:05:58;22.50;99.90
55436;DHT22;41307;53.142;6.430;2023-08-24T11:08:43;22.50;99.90
55436;DHT22;41307;53.142;6.430;2023-08-24T11:11:23;22.60;99.90
55436;DHT22;41307;53.142;6.430;2023-08-24T11:14:13;22.60;99.90
55436;DHT22;41307;53.142;6.430;2023-08-24T11:16:47;22.60;99.90
55436;DHT22;41307;53.142;6.430;2023-08-24T11:19:15;22.50;99.90
55436;DHT22;41307;53.142;6.430;2023-08-24T11:21:43;22.50;99.90
55436;DHT22;41307;53.142;6.430;2023-08-24T11:24:13;22.50;99.90
55436;DHT22;41307;53.142;6.430;2023-08-24T11:26:43;22.50;99.90
55436;DHT22;41307;53.142;6.430;2023-08-24T11:29:10;22.50;99.90
55436;DHT22;41307;53.142;6.430;2023-08-24T11:31:37;22.50;99.90
55436;DHT22;41307;53.142;6.430;2023-08-24T11:34:03;22.60;99.90
55436;DHT22;41307;53.142;6.430;2023-08-24T11:36:31;22.70;99.90
55436;DHT22;41307;53.142;6.430;2023-08-24T11:38:58;22.70;99.90
55436;DHT22;41307;53.142;6.430;2023-08-24T11:41:25;22.70;99.90
55436;DHT22;41307;53.142;6.430;2023-08-24T11:44:00;22.80;99.90
55436;DHT22;41307;53.142;6.430;2023-08-24T11:46:28;22.90;99.90
55436;DHT22;41307;53.142;6.430;2023-08-24T11:48:54;23.00;99.90
55436;DHT22;41307;53.142;6.430;2023-08-24T11:51:20;23.10;99.90
55436;DHT22;41307;53.142;6.430;2023-08-24T11:53:46;23.20;99.90
55436;DHT22;41307;53.142;6.430;2023-08-24T11:56:13;23.30;99.90
55436;DHT22;41307;53.142;6.430;2023-08-24T11:58:40;23.30;99.90
55436;DHT22;41307;53.142;6.430;2023-08-24T12:01:10;23.40;99.90
55436;DHT22;41307;53.142;6.430;2023-08-24T12:03:37;23.40;99.90
55436;DHT22;41307;53.142;6.430;2023-08-24T12:06:13;23.50;99.90
55436;DHT22;41307;53.142;6.430;2023-08-24T12:08:46;23.50;99.90
55436;DHT22;41307;53.142;6.430;2023-08-24T12:11:19;23.50;99.90
55436;DHT22;41307;53.142;6.430;2023-08-24T12:13:47;23.40;99.90
55436;DHT22;41307;53.142;6.430;2023-08-24T12:16:18;23.50;99.90
55436;DHT22;41307;53.142;6.430;2023-08-24T12:18:55;23.50;99.90
55436;DHT22;41307;53.142;6.430;2023-08-24T12:21:21;23.50;99.90
55436;DHT22;41307;53.142;6.430;2023-08-24T12:24:00;23.30;99.90
55436;DHT22;41307;53.142;6.430;2023-08-24T12:26:27;23.30;99.90
55436;DHT22;41307;53.142;6.430;2023-08-24T12:28:54;23.20;99.90
55436;DHT22;41307;53.142;6.430;2023-08-24T12:31:20;23.20;99.90
55436;DHT22;41307;53.142;6.430;2023-08-24T12:34:05;23.20;99.90
55436;DHT22;41307;53.142;6.430;2023-08-24T12:36:33;23.20;99.90
55436;DHT22;41307;53.142;6.430;2023-08-24T12:38:59;23.30;99.90
55436;DHT22;41307;53.142;6.430;2023-08-24T12:41:24;23.30;99.90
55436;DHT22;41307;53.142;6.430;2023-08-24T12:43:51;23.50;99.90
55436;DHT22;41307;53.142;6.430;2023-08-24T12:46:17;23.50;99.90
55436;DHT22;41307;53.142;6.430;2023-08-24T12:48:43;23.50;99.90
55436;DHT22;41307;53.142;6.430;2023-08-24T12:51:09;23.60;99.90
55436;DHT22;41307;53.142;6.430;2023-08-24T12:53:34;23.50;99.90
55436;DHT22;41307;53.142;6.430;2023-08-24T12:56:00;23.50;99.90
55436;DHT22;41307;53.142;6.430;2023-08-24T12:58:26;23.50;99.90
55436;DHT22;41307;53.142;6.430;2023-08-24T13:00:52;23.50;99.90
55436;DHT22;41307;53.142;6.430;2023-08-24T13:03:17;23.40;99.90
55436;DHT22;41307;53.142;6.430;2023-08-24T13:05:43;23.40;99.90
55436;DHT22;41307;53.142;6.430;2023-08-24T13:08:09;23.30;99.90
55436;DHT22;41307;53.142;6.430;2023-08-24T13:10:35;23.20;99.90
55436;DHT22;41307;53.142;6.430;2023-08-24T13:13:02;23.20;99.90
55436;DHT22;41307;53.142;6.430;2023-08-24T13:15:29;23.20;99.90
55436;DHT22;41307;53.142;6.430;2023-08-24T13:17:55;23.10;99.90
55436;DHT22;41307;53.142;6.430;2023-08-24T13:20:21;23.10;99.90
55436;DHT22;41307;53.142;6.430;2023-08-24T13:22:47;23.10;99.90
55436;DHT22;41307;53.142;6.430;2023-08-24T13:25:13;23.10;99.90
55436;DHT22;41307;53.142;6.430;2023-08-24T13:27:38;23.10;99.90
55436;DHT22;41307;53.142;6.430;2023-08-24T13:30:05;23.20;99.90
55436;DHT22;41307;53.142;6.430;2023-08-24T13:32:31;23.30;99.90
55436;DHT22;41307;53.142;6.430;2023-08-24T13:34:56;23.30;99.90
55436;DHT22;41307;53.142;6.430;2023-08-24T13:37:22;23.40;99.90
55436;DHT22;41307;53.142;6.430;2023-08-24T13:39:50;23.40;99.90
55436;DHT22;41307;53.142;6.430;2023-08-24T13:42:16;23.40;99.90
55436;DHT22;41307;53.142;6.430;2023-08-24T13:44:42;23.50;99.90
55436;DHT22;41307;53.142;6.430;2023-08-24T13:47:08;23.50;99.90
55436;DHT22;41307;53.142;6.430;2023-08-24T13:49:34;23.50;99.90
55436;DHT22;41307;53.142;6.430;2023-08-24T13:52:00;23.50;99.90
55436;DHT22;41307;53.142;6.430;2023-08-24T13:54:25;23.50;99.90
55436;DHT22;41307;53.142;6.430;2023-08-24T13:56:51;23.60;99.90
55436;DHT22;41307;53.142;6.430;2023-08-24T13:59:19;23.70;99.90
55436;DHT22;41307;53.142;6.430;2023-08-24T14:01:45;23.80;99.90
55436;DHT22;41307;53.142;6.430;2023-08-24T14:04:11;23.90;99.90
55436;DHT22;41307;53.142;6.430;2023-08-24T14:06:37;23.90;99.90
55436;DHT22;41307;53.142;6.430;2023-08-24T14:09:06;24.00;99.90
55436;DHT22;41307;53.142;6.430;2023-08-24T14:11:32;23.80;99.90
55436;DHT22;41307;53.142;6.430;2023-08-24T14:13:59;23.80;99.90
55436;DHT22;41307;53.142;6.430;2023-08-24T14:16:25;23.80;99.90
55436;DHT22;41307;53.142;6.430;2023-08-24T14:18:52;23.70;99.90
55436;DHT22;41307;53.142;6.430;2023-08-24T14:21:18;23.60;99.90
55436;DHT22;41307;53.142;6.430;2023-08-24T14:23:46;23.50;99.90
55436;DHT22;41307;53.142;6.430;2023-08-24T14:26:11;23.40;99.90
55436;DHT22;41307;53.142;6.430;2023-08-24T14:28:55;23.30;99.90
55436;DHT22;41307;53.142;6.430;2023-08-24T14:31:21;23.20;99.90
55436;DHT22;41307;53.142;6.430;2023-08-24T14:33:47;23.10;99.90
55436;DHT22;41307;53.142;6.430;2023-08-24T14:36:13;23.10;99.90
55436;DHT22;41307;53.142;6.430;2023-08-24T14:38:39;23.10;99.90
55436;DHT22;41307;53.142;6.430;2023-08-24T14:41:09;23.10;99.90
55436;DHT22;41307;53.142;6.430;2023-08-24T14:43:35;23.10;99.90
55436;DHT22;41307;53.142;6.430;2023-08-24T14:46:01;23.10;99.90
55436;DHT22;41307;53.142;6.430;2023-08-24T14:48:27;23.10;99.90
55436;DHT22;41307;53.142;6.430;2023-08-24T14:50:53;23.10;99.90
55436;DHT22;41307;53.142;6.430;2023-08-24T14:53:18;23.10;99.90
55436;DHT22;41307;53.142;6.430;2023-08-24T14:55:44;23.10;99.90
55436;DHT22;41307;53.142;6.430;2023-08-24T14:58:10;23.10;99.90
55436;DHT22;41307;53.142;6.430;2023-08-24T15:00:35;23.10;99.90
55436;DHT22;41307;53.142;6.430;2023-08-24T15:03:01;23.10;99.90
55436;DHT22;41307;53.142;6.430;2023-08-24T15:05:27;23.10;99.90
55436;DHT22;41307;53.142;6.430;2023-08-24T15:07:53;23.10;99.90
55436;DHT22;41307;53.142;6.430;2023-08-24T15:10:19;23.20;99.90
55436;DHT22;41307;53.142;6.430;2023-08-24T15:12:45;23.20;99.90
55436;DHT22;41307;53.142;6.430;2023-08-24T15:15:13;23.20;99.90
55436;DHT22;41307;53.142;6.430;2023-08-24T15:17:45;23.20;99.90
55436;DHT22;41307;53.142;6.430;2023-08-24T15:20:10;23.20;99.90
55436;DHT22;41307;53.142;6.430;2023-08-24T15:22:39;23.20;99.90
55436;DHT22;41307;53.142;6.430;2023-08-24T15:25:06;23.30;99.90
55436;DHT22;41307;53.142;6.430;2023-08-24T15:27:32;23.30;99.90
55436;DHT22;41307;53.142;6.430;2023-08-24T15:29:57;23.30;99.90
55436;DHT22;41307;53.142;6.430;2023-08-24T15:32:23;23.30;99.90
55436;DHT22;41307;53.142;6.430;2023-08-24T15:34:49;23.30;99.90
55436;DHT22;41307;53.142;6.430;2023-08-24T15:37:15;23.30;99.90